Hauptseite
METAR-TAF:

METAR-TAF

Flughäfen :

Catacamas, Honduras

Breite: 14-54N, Länge: 085-56W, Höhe: 442 m

Beobachtung

Neuester Wetterbericht von vor 32 Minuten, um 02:00 UTC
Windstille
Temperatur 24°C
Luftfeuchtigkeit 83%
Luftdruck 1010 hPa
Sichtweite 10 km oder mehr
Aufgelockert bewölkt in der Höhe von 2600 ft, Towering cumulus.
Geschlossene Wolkendecke in der Höhe von 8000 ft

METAR: MHCA 180200Z 00000KT 9999 SCT026TCU OVC080 24/21 Q1010

Zeit: 20:32 (02:32 UTC)


TAF: fehlend

Wetterbeobachtungen und Prognosen von mehr als 4000 Flughäfen (METAR und TAF Bericht).

Die verfügbaren Stationen werden durch gelbe und rote Markierungen auf der Karte dargestellt.

Führen Sie die Maus auf sie, um den Namen der Station zu sehen.

Darauf klicken, um die Beobachtung von Wetterbeobachtungen und Prognosen zu sehen.

Um die Karte zu ändern : klicken Sie auf den grünen Tasten mit einem schwarzen Kreuz Zum Vergrößern, auf den grünen Button mit einem Gedankenstrich zu verkleinern, oder auf die grünen Pfeile für benachbarte Karten.


METAR-TAF: